Time;durP1;ratioP1;P1;durP2;ratioP2;P2;SDS_P1;SDS_P2;PMS_P1;PMS_P2;Temp;Humidity;BMP_temperature;BMP_pressure;BME280_temperature;BME280_humidity;BME280_pressure;Samples;Min_cycle;Max_cycle;Signal;HPM_P1;HPM_P2
2022/07/20 00:02:21;;;;;;;5.85;3.92;;;12.20;99.90;12.00;98310.00;;;;5039578;27;87600;-59
2022/07/20 00:04:51;;;;;;;8.52;3.47;;;12.10;99.90;11.90;98311.00;;;;5038477;28;89930;-58
2022/07/20 00:07:18;;;;;;;5.05;3.60;;;12.10;99.90;11.90;98316.00;;;;5041502;27;89852;-59
2022/07/20 00:12:29;;;;;;;5.32;3.63;;;12.00;99.90;11.80;98294.00;;;;5039511;28;87306;-59
2022/07/20 00:14:55;;;;;;;7.07;3.88;;;12.00;99.90;11.80;98299.00;;;;5040612;27;88194;-59
2022/07/20 00:17:21;;;;;;;5.40;3.40;;;11.90;99.90;11.70;98299.00;;;;5038530;28;88463;-59
2022/07/20 00:19:48;;;;;;;7.65;3.40;;;11.90;99.90;11.70;98304.00;;;;5039241;28;87401;-59
2022/07/20 00:22:14;;;;;;;4.93;3.53;;;11.80;99.90;11.70;98292.00;;;;5040093;28;86713;-59
2022/07/20 00:24:40;;;;;;;6.80;3.67;;;11.80;99.90;11.60;98292.00;;;;5040338;28;89127;-59
2022/07/20 00:27:06;;;;;;;5.63;3.33;;;11.80;99.90;11.60;98287.00;;;;5041025;28;87477;-58
2022/07/20 00:29:33;;;;;;;7.20;3.78;;;11.80;99.90;11.60;98289.00;;;;5039898;28;88252;-59
2022/07/20 00:31:59;;;;;;;5.70;3.80;;;11.80;99.90;11.60;98285.00;;;;5041624;27;87388;-59
2022/07/20 00:34:25;;;;;;;6.60;3.75;;;11.70;99.90;11.50;98285.00;;;;5039662;27;89271;-59
2022/07/20 00:36:51;;;;;;;5.93;3.70;;;11.70;99.90;11.50;98289.00;;;;5038946;28;88519;-59
2022/07/20 00:39:17;;;;;;;6.05;3.65;;;11.70;99.90;11.50;98286.00;;;;5041142;28;88293;-59
2022/07/20 00:41:44;;;;;;;4.10;3.30;;;11.60;99.90;11.50;98274.00;;;;5041195;27;87055;-59
2022/07/20 00:44:11;;;;;;;8.32;3.67;;;11.60;99.90;11.50;98274.00;;;;5040347;27;87695;-59
2022/07/20 00:46:41;;;;;;;5.18;3.50;;;11.60;99.90;11.40;98268.00;;;;5041092;27;87218;-59
2022/07/20 00:49:09;;;;;;;6.10;3.38;;;11.60;99.90;11.40;98261.00;;;;5040512;27;87211;-59
2022/07/20 00:51:38;;;;;;;4.90;3.33;;;11.50;99.90;11.30;98250.00;;;;5040655;28;87466;-59
2022/07/20 00:54:05;;;;;;;6.03;3.80;;;11.50;99.90;11.30;98247.00;;;;5040239;27;88490;-59
2022/07/20 00:56:34;;;;;;;4.47;3.40;;;11.40;99.90;11.30;98242.00;;;;5039961;28;87385;-59
2022/07/20 00:59:04;;;;;;;8.40;3.67;;;11.40;99.90;11.30;98251.00;;;;5041090;27;87191;-59
2022/07/20 01:01:31;;;;;;;4.60;3.35;;;11.40;99.90;11.20;98252.00;;;;5038616;28;87334;-60
2022/07/20 01:03:58;;;;;;;6.47;3.63;;;11.40;99.90;11.20;98243.00;;;;5040587;27;88534;-59
2022/07/20 01:06:25;;;;;;;5.78;3.60;;;11.40;99.90;11.20;98240.00;;;;5040880;27;87871;-59
2022/07/20 01:08:51;;;;;;;6.18;3.80;;;11.40;99.90;11.20;98242.00;;;;5040431;28;87035;-59
2022/07/20 01:11:18;;;;;;;4.93;3.63;;;11.30;99.90;11.20;98230.00;;;;5040544;28;86340;-59
2022/07/20 01:13:45;;;;;;;5.00;3.63;;;11.30;99.90;11.20;98220.00;;;;5040331;28;89727;-60
2022/07/20 01:16:11;;;;;;;5.53;3.70;;;11.30;99.90;11.10;98225.00;;;;5039598;27;87325;-60
2022/07/20 01:18:38;;;;;;;6.80;3.17;;;11.30;99.90;11.10;98222.00;;;;5040334;28;88903;-60
2022/07/20 01:21:07;;;;;;;5.18;3.78;;;11.20;99.90;11.10;98214.00;;;;5040344;27;87411;-60
2022/07/20 01:23:34;;;;;;;8.18;3.78;;;11.30;99.90;11.10;98220.00;;;;5039955;27;88643;-60
2022/07/20 01:26:01;;;;;;;6.82;3.40;;;11.30;99.90;11.10;98211.00;;;;5040051;27;87585;-60
2022/07/20 01:28:29;;;;;;;4.68;3.70;;;11.30;99.90;11.10;98218.00;;;;5040387;28;87129;-60
2022/07/20 01:30:55;;;;;;;4.93;3.17;;;11.20;99.90;11.10;98215.00;;;;5039973;27;87365;-60
2022/07/20 01:33:21;;;;;;;7.00;4.10;;;11.30;99.90;11.10;98212.00;;;;5040585;27;87818;-60
2022/07/20 01:35:47;;;;;;;7.10;3.75;;;11.30;99.90;11.10;98215.00;;;;5039302;27;88362;-60
2022/07/20 01:38:13;;;;;;;5.15;3.40;;;11.30;99.90;11.20;98229.00;;;;5040323;27;87306;-60
2022/07/20 01:40:39;;;;;;;5.18;3.70;;;11.30;99.90;11.20;98209.00;;;;5039718;28;87160;-62
2022/07/20 01:43:06;;;;;;;7.05;3.55;;;11.30;99.90;11.20;98216.00;;;;5039388;27;88680;-62
2022/07/20 01:45:32;;;;;;;8.45;3.60;;;11.30;99.90;11.20;98206.00;;;;5039820;28;87307;-62
2022/07/20 01:47:58;;;;;;;5.93;3.38;;;11.30;99.90;11.20;98212.00;;;;5040143;27;87043;-60
2022/07/20 01:50:25;;;;;;;3.40;2.85;;;11.40;99.90;11.30;98202.00;;;;5039470;28;87053;-62
2022/07/20 01:52:51;;;;;;;7.07;3.30;;;11.40;99.90;11.30;98191.00;;;;5040356;28;87620;-63
2022/07/20 01:55:17;;;;;;;5.72;3.38;;;11.40;99.90;11.40;98189.00;;;;5039196;27;87488;-62
2022/07/20 01:57:43;;;;;;;3.65;3.10;;;11.50;99.90;11.50;98185.00;;;;5039662;27;87479;-60
2022/07/20 02:00:13;;;;;;;4.43;3.50;;;11.50;99.90;11.60;98182.00;;;;5040236;27;86374;-62
2022/07/20 02:02:40;;;;;;;5.15;3.28;;;11.60;99.90;11.70;98163.00;;;;5039658;27;87609;-62
2022/07/20 02:05:10;;;;;;;4.78;2.97;;;11.70;99.90;11.80;98165.00;;;;5039711;28;87359;-62
2022/07/20 02:07:38;;;;;;;5.43;3.00;;;11.90;99.90;12.00;98162.00;;;;5039155;27;88333;-62
2022/07/20 02:10:08;;;;;;;6.30;2.92;;;12.00;99.90;12.10;98159.00;;;;5039475;28;87622;-62
2022/07/20 02:12:35;;;;;;;5.35;2.60;;;12.20;99.90;12.30;98159.00;;;;5039475;27;89490;-62
2022/07/20 02:15:04;;;;;;;6.82;2.75;;;12.60;99.90;12.40;98156.00;;;;5038910;28;89723;-62
2022/07/20 02:17:30;;;;;;;10.50;3.17;;;12.60;99.90;12.60;98168.00;;;;5036250;28;87710;-63
2022/07/20 02:19:56;;;;;;;6.00;2.40;;;12.60;99.90;12.80;98160.00;;;;5039786;28;87245;-62
2022/07/20 02:22:22;;;;;;;10.85;3.13;;;12.80;99.90;13.30;98165.00;;;;5035925;28;87589;-62
2022/07/20 02:24:48;;;;;;;3.35;2.13;;;13.30;99.90;14.00;98160.00;;;;5039436;27;87085;-63
2022/07/20 02:27:15;;;;;;;6.70;2.00;;;13.80;99.90;14.30;98149.00;;;;5039154;27;86998;-62
2022/07/20 02:29:41;;;;;;;3.53;1.60;;;14.10;99.90;14.60;98140.00;;;;5039244;27;87044;-62
2022/07/20 02:32:07;;;;;;;3.28;1.92;;;14.40;99.90;15.10;98149.00;;;;5039160;28;89656;-62
2022/07/20 02:34:33;;;;;;;5.15;1.88;;;14.80;99.90;15.10;98146.00;;;;5036556;27;88284;-62
2022/07/20 02:36:59;;;;;;;2.75;1.80;;;14.60;99.90;14.90;98146.00;;;;5038114;27;87614;-61
2022/07/20 02:39:26;;;;;;;3.65;1.73;;;14.60;99.90;14.50;98139.00;;;;5039065;28;87124;-62
2022/07/20 02:41:52;;;;;;;3.55;2.05;;;14.40;99.90;14.40;98134.00;;;;5039126;27;87681;-62
2022/07/20 02:44:18;;;;;;;4.70;1.80;;;14.10;99.90;14.30;98133.00;;;;5036991;28;88503;-60
2022/07/20 02:46:44;;;;;;;5.47;2.10;;;14.10;99.90;14.10;98132.00;;;;5038726;28;87639;-62
2022/07/20 02:49:10;;;;;;;3.58;1.95;;;13.90;99.90;14.00;98125.00;;;;5038784;27;86312;-60
2022/07/20 02:51:36;;;;;;;5.50;2.33;;;13.90;99.90;14.00;98121.00;;;;5038114;28;87895;-62
2022/07/20 02:54:02;;;;;;;5.32;2.08;;;13.90;99.90;14.00;98113.00;;;;5037399;28;87833;-63
2022/07/20 02:56:29;;;;;;;4.43;2.28;;;13.90;99.90;14.10;98106.00;;;;5037456;27;88373;-60
2022/07/20 02:58:55;;;;;;;4.35;1.90;;;13.80;99.90;14.70;98110.00;;;;5035099;28;87534;-62
2022/07/20 03:01:21;;;;;;;5.05;1.70;;;14.50;99.90;15.40;98104.00;;;;5038565;28;87834;-60
2022/07/20 03:03:47;;;;;;;4.10;2.05;;;15.10;99.90;15.60;98106.00;;;;5038153;27;87171;-59
2022/07/20 03:06:15;;;;;;;2.67;1.80;;;15.20;99.90;15.40;98109.00;;;;5039457;27;87729;-60
2022/07/20 03:08:41;;;;;;;7.13;2.47;;;15.10;99.90;15.30;98093.00;;;;5041397;27;87212;-59
2022/07/20 03:11:08;;;;;;;5.88;2.00;;;15.10;99.90;15.10;98104.00;;;;5041112;28;87567;-61
2022/07/20 03:13:34;;;;;;;6.50;2.10;;;14.70;99.90;14.90;98098.00;;;;5042294;28;87377;-62
2022/07/20 03:16:00;;;;;;;7.45;2.40;;;14.60;99.90;14.80;98100.00;;;;5041288;28;87048;-60
2022/07/20 03:18:26;;;;;;;11.57;2.58;;;14.50;99.90;14.70;98083.00;;;;5042081;27;87212;-60
2022/07/20 03:20:52;;;;;;;3.53;1.70;;;14.50;99.90;14.70;98071.00;;;;5041021;28;89619;-60
2022/07/20 03:23:18;;;;;;;3.05;2.03;;;14.50;99.90;14.60;98077.00;;;;5041626;28;89467;-59
2022/07/20 03:25:44;;;;;;;5.38;2.00;;;14.40;99.90;14.60;98075.00;;;;5041893;27;87452;-59
2022/07/20 03:28:10;;;;;;;6.78;2.58;;;14.40;99.90;14.70;98088.00;;;;5041856;28;87394;-59
2022/07/20 03:30:37;;;;;;;4.97;2.08;;;14.50;99.90;14.70;98088.00;;;;5038676;27;87927;-59
2022/07/20 03:33:03;;;;;;;5.22;2.30;;;14.50;99.90;14.70;98089.00;;;;5042016;28;88533;-59
2022/07/20 03:35:29;;;;;;;4.70;2.20;;;14.50;99.90;14.60;98091.00;;;;5041028;27;87302;-60
2022/07/20 03:37:56;;;;;;;4.70;2.15;;;14.40;99.90;14.70;98087.00;;;;5041752;28;86584;-59
2022/07/20 03:40:22;;;;;;;6.78;2.55;;;14.50;99.90;14.60;98087.00;;;;5041040;28;88263;-60
2022/07/20 03:42:48;;;;;;;6.78;2.17;;;14.40;99.90;14.50;98094.00;;;;5041694;28;87613;-59
2022/07/20 03:45:14;;;;;;;5.03;2.10;;;14.30;99.90;14.40;98089.00;;;;5041031;27;88280;-59
2022/07/20 03:47:40;;;;;;;3.67;2.17;;;14.20;99.90;14.40;98084.00;;;;5041615;27;87051;-59
2022/07/20 03:50:07;;;;;;;6.85;2.85;;;14.20;99.90;14.30;98082.00;;;;5041005;28;86980;-59
2022/07/20 03:52:33;;;;;;;5.53;2.28;;;14.20;99.90;14.30;98087.00;;;;5039141;28;87524;-59
2022/07/20 03:55:00;;;;;;;7.10;2.13;;;14.10;99.90;14.30;98085.00;;;;5041234;28;87271;-59
2022/07/20 03:57:26;;;;;;;4.45;2.03;;;14.20;99.90;14.30;98087.00;;;;5040389;28;86981;-59
2022/07/20 03:59:52;;;;;;;5.15;2.67;;;14.10;99.90;14.20;98079.00;;;;5040114;28;87660;-59
2022/07/20 04:02:18;;;;;;;6.47;2.47;;;14.10;99.90;14.20;98079.00;;;;5041913;27;87337;-59
2022/07/20 04:04:44;;;;;;;4.97;1.92;;;14.10;99.90;14.20;98074.00;;;;5040037;28;87687;-59
2022/07/20 04:07:10;;;;;;;6.93;2.40;;;14.00;99.90;14.20;98072.00;;;;5041281;27;87020;-59
2022/07/20 04:09:48;;;;;;;3.90;2.20;;;14.00;99.90;14.10;98071.00;;;;5040067;27;88676;-60
2022/07/20 04:12:23;;;;;;;6.82;2.60;;;14.00;99.90;14.10;98066.00;;;;5054161;27;90582;-60
2022/07/20 04:14:51;;;;;;;6.95;3.22;;;14.00;99.90;14.00;98061.00;;;;5040707;27;87568;-60
2022/07/20 04:17:19;;;;;;;3.88;2.47;;;13.90;99.90;14.00;98053.00;;;;5037545;27;87457;-60
2022/07/20 04:19:46;;;;;;;5.78;2.65;;;13.90;99.90;14.00;98051.00;;;;5039920;28;88164;-60
2022/07/20 04:22:12;;;;;;;3.40;2.72;;;13.90;99.90;14.00;98025.00;;;;5040018;27;88845;-60
2022/07/20 04:24:38;;;;;;;4.40;3.08;;;13.90;99.90;13.90;98035.00;;;;5038703;28;87331;-60
2022/07/20 04:27:05;;;;;;;9.65;3.28;;;14.00;99.90;13.90;98034.00;;;;5039120;28;86320;-60
2022/07/20 04:29:32;;;;;;;4.43;3.15;;;13.80;99.90;13.90;98025.00;;;;5040542;28;87597;-60
2022/07/20 04:31:59;;;;;;;6.80;3.20;;;13.80;99.90;13.80;98026.00;;;;5040827;28;87673;-60
2022/07/20 04:34:27;;;;;;;4.03;3.17;;;13.80;99.90;13.80;98023.00;;;;5038915;28;88028;-60
2022/07/20 04:36:53;;;;;;;5.63;3.75;;;13.80;99.90;13.90;98021.00;;;;5040118;28;87367;-60
2022/07/20 04:39:19;;;;;;;5.55;3.83;;;13.80;99.90;13.90;98012.00;;;;5039963;28;87808;-60
2022/07/20 04:41:45;;;;;;;5.82;3.33;;;13.80;99.90;13.90;98007.00;;;;5040432;28;87628;-61
2022/07/20 04:44:12;;;;;;;6.90;3.78;;;13.90;99.90;14.00;98003.00;;;;5039826;27;87457;-60
2022/07/20 04:46:38;;;;;;;6.13;3.80;;;13.90;99.90;14.00;98003.00;;;;5040551;27;87491;-60
2022/07/20 04:49:04;;;;;;;9.80;3.92;;;13.90;99.90;14.10;98009.00;;;;5039783;28;87068;-60
2022/07/20 04:51:30;;;;;;;8.15;3.50;;;14.00;99.90;14.10;98013.00;;;;5039780;28;88017;-61
2022/07/20 04:53:57;;;;;;;6.82;3.80;;;14.00;99.90;14.20;98006.00;;;;5047881;27;87422;-61
2022/07/20 04:56:23;;;;;;;4.82;3.58;;;14.10;99.90;14.30;98006.00;;;;5043290;27;87290;-61
2022/07/20 04:58:52;;;;;;;9.80;3.88;;;14.10;99.90;14.30;98001.00;;;;5039966;27;89227;-61
2022/07/20 05:01:21;;;;;;;7.63;4.10;;;14.10;99.90;14.30;97992.00;;;;5040577;28;89389;-61
2022/07/20 05:03:47;;;;;;;6.78;3.92;;;14.20;99.90;14.30;97996.00;;;;5040666;28;87208;-59
2022/07/20 05:06:13;;;;;;;9.98;4.07;;;14.20;99.90;14.30;97985.00;;;;5040364;27;87614;-59
2022/07/20 05:08:40;;;;;;;5.93;3.60;;;;;14.30;97986.00;;;;5040039;28;87538;-59
2022/07/20 05:11:06;;;;;;;7.55;3.40;;;14.20;99.90;14.30;97986.00;;;;5039313;27;87110;-61
2022/07/20 05:13:32;;;;;;;6.70;3.83;;;14.20;99.90;14.30;97982.00;;;;5040068;28;87408;-59
2022/07/20 05:15:59;;;;;;;8.27;4.82;;;14.20;99.90;14.30;98000.00;;;;5039727;27;86547;-61
2022/07/20 05:18:29;;;;;;;7.35;5.20;;;14.20;99.90;14.30;98003.00;;;;5039951;27;88157;-60
2022/07/20 05:20:57;;;;;;;10.02;5.60;;;14.10;99.90;14.20;98011.00;;;;5036824;28;87898;-60
2022/07/20 05:23:25;;;;;;;10.60;6.00;;;14.10;99.90;14.10;98017.00;;;;5037970;28;88851;-60
2022/07/20 05:25:51;;;;;;;9.73;5.57;;;14.00;99.90;14.10;98011.00;;;;5038548;27;87095;-60
2022/07/20 05:28:20;;;;;;;8.55;6.03;;;13.90;99.90;14.00;98015.00;;;;5039717;28;87930;-60
2022/07/20 05:30:50;;;;;;;8.50;6.07;;;13.90;99.90;14.00;98005.00;;;;5038448;27;88285;-60
2022/07/20 05:33:17;;;;;;;8.60;5.50;;;13.90;99.90;14.00;98000.00;;;;5037682;28;87420;-61
2022/07/20 05:35:44;;;;;;;9.00;5.00;;;13.90;99.90;14.00;97982.00;;;;5038931;28;87015;-60
2022/07/20 05:38:11;;;;;;;7.47;6.13;;;13.90;99.90;14.00;97983.00;;;;5039192;27;88509;-60
2022/07/20 05:40:37;;;;;;;11.43;6.72;;;14.20;99.90;14.10;97980.00;;;;5039887;28;87275;-60
2022/07/20 05:43:03;;;;;;;9.35;6.15;;;14.00;99.90;14.10;97969.00;;;;5040566;28;87247;-60
2022/07/20 05:45:30;;;;;;;7.05;5.43;;;14.00;99.90;14.10;97972.00;;;;5039487;28;87983;-60
2022/07/20 05:47:57;;;;;;;6.85;5.68;;;14.00;99.90;14.10;97967.00;;;;5037291;28;89852;-59
2022/07/20 05:50:23;;;;;;;9.25;5.72;;;14.00;99.90;14.10;97964.00;;;;5039056;27;88239;-59
2022/07/20 05:52:50;;;;;;;9.50;6.43;;;14.10;99.90;14.10;97959.00;;;;5039806;27;87072;-59
2022/07/20 05:55:16;;;;;;;9.05;5.80;;;14.10;99.90;14.10;97941.00;;;;5038867;28;87436;-59
2022/07/20 05:57:43;;;;;;;8.50;6.18;;;14.10;99.90;14.20;97936.00;;;;5039068;27;87721;-59
2022/07/20 06:00:10;;;;;;;9.13;6.43;;;14.10;99.90;14.20;97926.00;;;;5039219;27;87229;-60
2022/07/20 06:02:37;;;;;;;6.88;4.13;;;14.00;99.90;14.20;97917.00;;;;5037181;28;87285;-60
2022/07/20 06:05:03;;;;;;;7.97;5.15;;;14.00;99.90;14.20;97906.00;;;;5037616;28;86601;-60
2022/07/20 06:07:29;;;;;;;6.07;3.95;;;14.10;99.90;14.20;97906.00;;;;5039526;27;88674;-60
2022/07/20 06:09:56;;;;;;;6.40;4.85;;;14.10;99.90;14.20;97901.00;;;;5038916;28;87516;-60
2022/07/20 06:12:22;;;;;;;8.20;4.95;;;14.10;99.90;14.30;97888.00;;;;5039478;27;88289;-60
2022/07/20 06:14:48;;;;;;;6.95;4.50;;;14.10;99.90;14.30;97883.00;;;;5038086;28;87527;-60
2022/07/20 06:17:14;;;;;;;5.50;4.03;;;14.10;99.90;14.30;97888.00;;;;5037702;28;88891;-60
2022/07/20 06:19:41;;;;;;;8.25;4.43;;;14.20;99.90;14.30;97875.00;;;;5039547;27;87357;-60
2022/07/20 06:22:08;;;;;;;6.60;3.80;;;14.20;99.90;14.30;97857.00;;;;5038538;28;87439;-60
2022/07/20 06:24:34;;;;;;;4.90;3.50;;;14.20;99.90;14.30;97848.00;;;;5039353;27;87123;-60
2022/07/20 06:27:00;;;;;;;4.88;4.00;;;14.20;99.90;14.30;97844.00;;;;5037361;28;88528;-60
2022/07/20 06:29:26;;;;;;;3.35;2.22;;;14.30;99.90;14.40;97842.00;;;;5039462;28;88822;-60
2022/07/20 06:31:52;;;;;;;4.40;2.90;;;14.30;99.90;14.40;97846.00;;;;5039244;28;87050;-60
2022/07/20 06:34:19;;;;;;;6.75;3.65;;;14.30;99.90;14.50;97844.00;;;;5037332;28;87093;-59
2022/07/20 06:36:46;;;;;;;3.88;2.60;;;14.40;99.90;14.60;97840.00;;;;5037997;28;89220;-61
2022/07/20 06:39:13;;;;;;;4.75;3.10;;;14.60;99.90;14.70;97836.00;;;;5038777;27;88819;-60
2022/07/20 06:41:39;;;;;;;3.28;2.33;;;14.70;99.90;14.80;97841.00;;;;5038065;27;87068;-61
2022/07/20 06:44:10;;;;;;;4.45;2.83;;;;;14.90;97842.00;;;;5037130;28;87282;-60
2022/07/20 06:46:36;;;;;;;4.05;2.85;;;14.70;99.90;14.90;97834.00;;;;5035842;28;87544;-60
2022/07/20 06:49:03;;;;;;;3.63;2.20;;;15.00;99.90;15.10;97835.00;;;;5038775;27;87399;-60
2022/07/20 06:51:29;;;;;;;4.28;2.22;;;15.00;99.90;15.40;97846.00;;;;5038539;27;87408;-60
2022/07/20 06:53:56;;;;;;;5.93;3.08;;;15.40;99.90;15.50;97860.00;;;;5036374;28;86734;-60
2022/07/20 06:56:22;;;;;;;6.78;2.78;;;15.30;99.90;15.40;97866.00;;;;5037694;27;88647;-60
2022/07/20 06:58:49;;;;;;;4.03;2.10;;;15.20;99.90;15.40;97864.00;;;;5038535;27;88327;-60
2022/07/20 07:01:15;;;;;;;4.85;2.08;;;15.30;99.90;15.40;97868.00;;;;5038380;28;88001;-60
2022/07/20 07:03:41;;;;;;;4.40;1.88;;;15.20;99.90;15.30;97866.00;;;;5038905;27;87026;-59
2022/07/20 07:06:07;;;;;;;5.47;1.85;;;15.20;99.90;15.40;97857.00;;;;5038283;27;88441;-60
2022/07/20 07:08:34;;;;;;;3.67;1.80;;;15.40;99.90;15.50;97850.00;;;;5038904;27;87326;-60
2022/07/20 07:11:00;;;;;;;5.28;1.70;;;15.40;99.90;15.70;97845.00;;;;5037658;28;87149;-60
2022/07/20 07:13:26;;;;;;;3.03;1.58;;;15.60;99.90;16.00;97842.00;;;;5038444;28;87771;-60
2022/07/20 07:15:52;;;;;;;1.77;1.45;;;16.30;99.90;16.50;97835.00;;;;5039238;27;88238;-60
2022/07/20 07:18:18;;;;;;;2.72;1.73;;;16.70;99.90;17.10;97823.00;;;;5038725;27;88427;-61
2022/07/20 07:20:45;;;;;;;2.65;1.40;;;16.80;99.90;17.40;97828.00;;;;5039047;27;87144;-60
2022/07/20 07:23:11;;;;;;;1.50;1.00;;;17.10;99.90;17.80;97807.00;;;;5038191;27;87097;-61
2022/07/20 07:25:37;;;;;;;2.90;1.25;;;17.50;99.90;18.10;97816.00;;;;5036088;28;88495;-60
2022/07/20 07:28:04;;;;;;;1.90;1.23;;;17.90;99.90;18.30;97816.00;;;;5038627;27;88203;-61
2022/07/20 07:30:30;;;;;;;2.90;1.50;;;;;18.40;97808.00;;;;5038079;28;87454;-60
2022/07/20 07:32:56;;;;;;;3.05;1.20;;;18.10;99.90;18.40;97804.00;;;;5038084;27;87511;-58
2022/07/20 07:35:22;;;;;;;2.05;1.42;;;18.00;99.90;18.30;97800.00;;;;5035544;27;88586;-60
2022/07/20 07:37:48;;;;;;;1.85;0.98;;;17.90;99.90;17.90;97794.00;;;;5036620;28;88387;-59
2022/07/20 07:40:15;;;;;;;4.18;1.52;;;17.30;99.90;17.60;97785.00;;;;5037926;27;87383;-59
2022/07/20 07:42:41;;;;;;;5.50;1.60;;;17.10;99.90;17.40;97784.00;;;;5036495;28;86433;-59
2022/07/20 07:45:08;;;;;;;2.80;1.15;;;17.10;99.90;17.40;97784.00;;;;5037512;27;87462;-59
2022/07/20 07:47:35;;;;;;;2.63;1.30;;;17.10;99.90;17.40;97782.00;;;;5037270;27;87382;-59
2022/07/20 07:50:01;;;;;;;1.58;1.20;;;17.10;99.90;17.60;97772.00;;;;5036646;28;88258;-59
2022/07/20 07:52:27;;;;;;;1.40;1.05;;;17.40;99.90;17.70;97782.00;;;;5038715;27;87545;-60
2022/07/20 07:54:53;;;;;;;3.42;1.30;;;17.40;99.90;17.90;97773.00;;;;5040702;27;88533;-60
2022/07/20 07:57:19;;;;;;;2.58;1.10;;;17.80;99.90;18.10;97770.00;;;;5040769;28;87234;-60
2022/07/20 07:59:45;;;;;;;2.42;1.60;;;17.80;99.90;18.20;97760.00;;;;5041121;27;87362;-60
2022/07/20 08:02:11;;;;;;;2.80;1.27;;;17.90;99.90;18.40;97746.00;;;;5040877;27;87094;-60
2022/07/20 08:04:37;;;;;;;2.83;1.27;;;18.10;99.90;18.50;97746.00;;;;5040615;28;87995;-60
2022/07/20 08:07:04;;;;;;;1.50;1.00;;;18.40;99.90;18.80;97735.00;;;;5041358;27;87353;-60
2022/07/20 08:09:30;;;;;;;5.20;0.70;;;16.80;99.90;18.60;97744.00;;;;5040496;28;87200;-60
2022/07/20 08:11:56;;;;;;;0.98;0.88;;;18.50;99.90;18.70;97738.00;;;;5040816;27;87480;-60
2022/07/20 08:14:22;;;;;;;1.50;0.90;;;18.50;99.90;18.90;97734.00;;;;5039566;27;89442;-59
2022/07/20 08:16:48;;;;;;;1.88;1.10;;;18.50;99.90;18.60;97738.00;;;;5040378;28;88253;-59
2022/07/20 08:19:14;;;;;;;1.83;0.90;;;18.40;99.90;18.40;97733.00;;;;5040827;27;87108;-59
2022/07/20 08:21:40;;;;;;;1.83;0.80;;;18.20;99.90;18.30;97739.00;;;;5040738;28;87938;-59
2022/07/20 08:24:07;;;;;;;3.70;1.00;;;18.00;99.90;18.30;97735.00;;;;5039694;28;88711;-60
2022/07/20 08:26:34;;;;;;;1.35;0.90;;;17.90;99.90;18.10;97731.00;;;;5040939;28;88533;-60
2022/07/20 08:29:00;;;;;;;3.33;1.02;;;17.90;99.90;18.10;97730.00;;;;5040886;27;86994;-60
2022/07/20 08:31:26;;;;;;;1.27;1.00;;;;;18.10;97734.00;;;;5040755;27;86668;-59
2022/07/20 08:33:53;;;;;;;4.50;1.00;;;17.90;99.90;18.20;97739.00;;;;5040784;28;87048;-61
2022/07/20 08:36:19;;;;;;;6.63;0.90;;;17.90;99.90;18.30;97732.00;;;;5040190;28;86979;-60
2022/07/20 08:38:45;;;;;;;2.95;1.17;;;18.00;99.90;18.30;97728.00;;;;5040002;28;88315;-60
2022/07/20 08:41:11;;;;;;;1.17;0.80;;;18.20;99.90;18.50;97728.00;;;;5041211;27;86993;-60
2022/07/20 08:43:37;;;;;;;0.80;0.52;;;18.40;99.90;18.70;97734.00;;;;5040562;27;88606;-60
2022/07/20 08:46:04;;;;;;;1.15;0.90;;;18.40;99.90;18.90;97736.00;;;;5037435;28;88201;-60
2022/07/20 08:48:31;;;;;;;1.77;1.00;;;18.60;99.90;19.30;97732.00;;;;5040420;27;87093;-60
2022/07/20 08:50:58;;;;;;;1.42;1.00;;;19.20;99.90;19.50;97736.00;;;;5039663;27;87072;-60
2022/07/20 08:53:24;;;;;;;4.40;0.80;;;19.10;99.90;19.50;97731.00;;;;5040300;27;87611;-60
2022/07/20 08:55:50;;;;;;;2.03;0.90;;;19.00;99.90;19.10;97744.00;;;;5040184;28;88358;-60
2022/07/20 08:58:16;;;;;;;2.50;1.00;;;18.70;99.90;19.20;97735.00;;;;5038332;27;87495;-60
2022/07/20 09:00:42;;;;;;;1.17;0.88;;;18.70;99.90;19.20;97735.00;;;;5040066;27;87178;-60
2022/07/20 09:03:09;;;;;;;2.60;1.08;;;19.00;99.90;19.30;97734.00;;;;5039656;27;88633;-60
2022/07/20 09:05:39;;;;;;;3.40;1.13;;;19.20;99.90;19.50;97735.00;;;;5038805;27;89732;-60
2022/07/20 09:08:11;;;;;;;1.55;0.85;;;19.10;99.90;19.80;97727.00;;;;5040023;28;87425;-59
2022/07/20 09:10:41;;;;;;;2.05;0.80;;;19.60;99.90;19.90;97729.00;;;;5039968;28;87257;-60
2022/07/20 09:13:13;;;;;;;0.70;0.60;;;19.80;99.90;20.20;97732.00;;;;5039884;27;87204;-60
2022/07/20 09:15:54;;;;;;;1.83;0.80;;;20.10;99.90;20.40;97722.00;;;;5037645;28;87832;-59
2022/07/20 09:18:24;;;;;;;2.17;0.73;;;20.40;99.90;20.70;97719.00;;;;5037989;28;87258;-59
2022/07/20 09:20:58;;;;;;;3.72;0.60;;;20.50;99.90;20.90;97725.00;;;;5040287;27;86531;-59
2022/07/20 09:23:41;;;;;;;5.05;1.08;;;20.60;99.90;20.70;97734.00;;;;5039403;27;87982;-60
2022/07/20 09:26:16;;;;;;;3.10;0.80;;;19.60;99.90;19.90;97741.00;;;;5039770;28;87512;-60
2022/07/20 09:28:54;;;;;;;6.05;0.80;;;19.60;99.90;18.70;97741.00;;;;5039031;28;88397;-60
2022/07/20 09:31:40;;;;;;;3.08;0.70;;;17.80;99.90;17.80;97733.00;;;;5038983;28;87023;-60
2022/07/20 09:34:12;;;;;;;4.57;0.98;;;17.30;99.90;17.50;97737.00;;;;5039772;27;87654;-60
2022/07/20 09:36:43;;;;;;;5.45;1.30;;;17.30;99.90;17.20;97733.00;;;;5037862;28;88988;-60
2022/07/20 09:39:21;;;;;;;2.13;1.25;;;17.10;99.90;17.10;97741.00;;;;5039048;28;87475;-60
2022/07/20 09:41:56;;;;;;;2.88;1.15;;;17.00;99.90;17.10;97740.00;;;;5038562;28;86956;-60
2022/07/20 09:44:28;;;;;;;1.90;0.90;;;17.00;99.90;17.10;97740.00;;;;5036338;28;87593;-60
2022/07/20 09:46:55;;;;;;;3.95;1.27;;;17.00;99.90;17.10;97722.00;;;;5039672;27;89367;-60
2022/07/20 09:49:36;;;;;;;1.75;1.05;;;17.10;99.90;17.20;97721.00;;;;5036870;28;88054;-60
2022/07/20 09:52:06;;;;;;;2.90;1.20;;;17.10;99.90;17.40;97728.00;;;;5039506;28;87025;-60
2022/07/20 09:54:32;;;;;;;2.58;1.23;;;17.50;99.90;17.60;97703.00;;;;5039030;27;89952;-60
2022/07/20 09:57:00;;;;;;;2.13;1.23;;;17.50;99.90;17.90;97703.00;;;;5036952;27;89111;-60
2022/07/20 09:59:27;;;;;;;2.92;1.10;;;17.70;99.90;18.00;97702.00;;;;5037956;28;87168;-60
2022/07/20 10:01:56;;;;;;;3.10;1.10;;;18.10;99.90;18.30;97704.00;;;;5038726;28;87409;-60
2022/07/20 10:04:22;;;;;;;2.20;1.30;;;18.10;99.90;18.60;97699.00;;;;5038401;28;87596;-60
2022/07/20 10:06:52;;;;;;;2.25;1.27;;;18.50;99.90;18.90;97701.00;;;;5039645;28;87210;-60
2022/07/20 10:09:19;;;;;;;3.30;1.30;;;18.50;99.90;18.70;97693.00;;;;5039468;28;87584;-60
2022/07/20 10:11:47;;;;;;;3.63;1.10;;;18.50;99.90;18.70;97688.00;;;;5039819;27;86349;-60
2022/07/20 10:14:18;;;;;;;1.52;1.00;;;18.60;99.90;19.00;97688.00;;;;5038078;28;87677;-60
2022/07/20 10:16:48;;;;;;;;;;;18.80;99.90;18.90;97681.00;;;;5037749;27;87421;-60
2022/07/20 10:19:15;;;;;;;1.80;0.90;;;18.80;99.90;19.00;97684.00;;;;5039629;28;88365;-58
2022/07/20 10:21:45;;;;;;;1.50;1.00;;;18.70;99.90;18.90;97686.00;;;;5036508;28;87406;-58
2022/07/20 10:24:30;;;;;;;1.38;0.82;;;18.70;99.90;18.80;97686.00;;;;5038542;27;88725;-60
2022/07/20 10:27:12;;;;;;;1.20;0.80;;;18.40;99.90;18.50;97680.00;;;;5037722;28;88496;-59
2022/07/20 10:29:43;;;;;;;3.88;0.80;;;18.00;99.90;18.20;97678.00;;;;5038323;27;86991;-59
2022/07/20 10:32:09;;;;;;;4.03;0.80;;;17.90;99.90;18.10;97674.00;;;;5039169;28;87373;-60
2022/07/20 10:34:44;;;;;;;1.67;0.60;;;17.70;99.90;17.80;97664.00;;;;5038070;27;88556;-60
2022/07/20 10:37:42;;;;;;;0.70;0.60;;;17.70;99.90;18.00;97667.00;;;;5037817;27;88360;-60
2022/07/20 10:40:20;;;;;;;1.33;0.93;;;17.90;99.90;18.30;97647.00;;;;5039114;27;87362;-60
2022/07/20 10:43:05;;;;;;;2.33;0.80;;;18.30;99.90;18.60;97648.00;;;;5037816;28;87630;-60
2022/07/20 10:45:33;;;;;;;2.08;0.90;;;18.50;99.90;18.60;97640.00;;;;5035845;28;89650;-60
2022/07/20 10:48:11;;;;;;;0.77;0.70;;;18.50;99.90;18.80;97646.00;;;;5016610;28;88146;-59
2022/07/20 10:50:40;;;;;;;6.72;3.08;;;18.90;99.90;19.00;97636.00;;;;5037774;28;87421;-59
2022/07/20 10:53:20;;;;;;;2.90;0.80;;;18.90;99.90;18.90;97649.00;;;;5037607;28;87670;-59
2022/07/20 10:56:03;;;;;;;1.27;0.77;;;18.50;99.90;18.60;97649.00;;;;5037855;27;87663;-59
2022/07/20 10:59:03;;;;;;;;;;;;;;;;;;;;;
2022/07/20 11:02:03;;;;;;;1.60;0.88;;;18.40;99.90;18.50;97637.00;;;;5036510;27;87199;-59
2022/07/20 11:08:49;;;;;;;1.52;0.80;;;18.80;99.90;18.80;97638.00;;;;5049700;27;87594;-61